Time;durP1;ratioP1;P1;durP2;ratioP2;P2;SDS_P1;SDS_P2;PMS_P1;PMS_P2;Temp;Humidity;BMP_temperature;BMP_pressure;BME280_temperature;BME280_humidity;BME280_pressure;Samples;Min_cycle;Max_cycle;Signal;HPM_P1;HPM_P2
2021/08/09 00:00:40;;;;;;;12.18;4.00;;;15.10;92.80;;;;;;4946036;28;20036;-55
2021/08/09 00:03:06;;;;;;;10.65;3.85;;;15.10;92.80;;;;;;4942612;28;20500;-55
2021/08/09 00:05:33;;;;;;;13.80;4.30;;;15.10;92.80;;;;;;4950916;28;20071;-55
2021/08/09 00:07:59;;;;;;;9.05;3.75;;;15.10;92.90;;;;;;4954874;29;20078;-53
2021/08/09 00:10:27;;;;;;;11.32;4.13;;;15.10;92.90;;;;;;4953797;28;20039;-55
2021/08/09 00:12:53;;;;;;;11.20;3.80;;;15.10;92.80;;;;;;4952661;28;20094;-55
2021/08/09 00:15:19;;;;;;;13.70;4.13;;;15.00;92.80;;;;;;4951607;28;20087;-55
2021/08/09 00:17:44;;;;;;;10.07;3.75;;;15.00;92.90;;;;;;4945604;29;20567;-56
2021/08/09 00:20:11;;;;;;;9.85;3.83;;;15.00;92.90;;;;;;4951275;29;20075;-51
2021/08/09 00:22:37;;;;;;;13.48;4.00;;;15.00;92.90;;;;;;4955410;28;20054;-55
2021/08/09 00:25:03;;;;;;;12.60;3.90;;;15.00;92.90;;;;;;4947267;29;20413;-51
2021/08/09 00:27:29;;;;;;;8.82;3.53;;;15.00;92.90;;;;;;4955407;28;20043;-51
2021/08/09 00:29:54;;;;;;;12.02;4.05;;;15.00;93.00;;;;;;4966330;28;20129;-52
2021/08/09 00:32:20;;;;;;;13.10;4.00;;;15.00;92.90;;;;;;4944656;28;20040;-52
2021/08/09 00:34:46;;;;;;;14.85;3.90;;;15.00;92.90;;;;;;4950702;29;20039;-53
2021/08/09 00:37:11;;;;;;;12.82;4.15;;;15.00;93.00;;;;;;4951867;28;20043;-54
2021/08/09 00:39:37;;;;;;;17.45;3.70;;;15.10;92.90;;;;;;4955533;28;20039;-52
2021/08/09 00:42:03;;;;;;;15.50;4.13;;;15.00;92.90;;;;;;4954513;29;20122;-53
2021/08/09 00:44:28;;;;;;;14.65;4.00;;;15.00;92.80;;;;;;4954925;28;20039;-51
2021/08/09 00:46:54;;;;;;;11.02;4.25;;;15.00;92.80;;;;;;4945735;29;20110;-56
2021/08/09 00:49:20;;;;;;;13.95;4.03;;;15.00;92.80;;;;;;4954115;28;20052;-55
2021/08/09 00:51:45;;;;;;;10.57;3.33;;;15.00;92.80;;;;;;4954535;28;20475;-56
2021/08/09 00:54:12;;;;;;;11.38;4.18;;;15.00;92.80;;;;;;4954754;28;20043;-53
2021/08/09 00:56:38;;;;;;;13.93;4.55;;;15.00;92.80;;;;;;4951977;28;20039;-54
2021/08/09 00:59:04;;;;;;;13.45;4.30;;;15.00;92.90;;;;;;4953535;28;20098;-54
2021/08/09 01:01:30;;;;;;;14.15;4.00;;;15.00;92.90;;;;;;4948069;28;20039;-54
2021/08/09 01:03:56;;;;;;;11.95;3.97;;;15.00;92.90;;;;;;4947363;28;20476;-54
2021/08/09 01:06:21;;;;;;;18.17;3.83;;;14.90;92.80;;;;;;4936572;28;20475;-54
2021/08/09 01:09:11;;;;;;;11.20;3.80;;;14.90;92.90;;;;;;4944847;28;20043;-53
2021/08/09 01:12:15;;;;;;;14.73;4.30;;;14.90;92.90;;;;;;4951974;28;20039;-54
2021/08/09 01:14:46;;;;;;;14.30;4.28;;;14.80;92.90;;;;;;4934493;29;20047;-54
2021/08/09 01:17:13;;;;;;;12.13;4.15;;;14.80;93.00;;;;;;4947719;29;20048;-54
2021/08/09 01:19:38;;;;;;;13.35;4.30;;;14.80;92.90;;;;;;4947991;28;20070;-52
2021/08/09 01:22:23;;;;;;;11.23;4.15;;;14.80;93.00;;;;;;4955237;28;20474;-53
2021/08/09 01:25:00;;;;;;;12.93;4.40;;;14.80;92.90;;;;;;4953451;28;20039;-54
2021/08/09 01:27:30;;;;;;;12.52;4.32;;;14.70;92.90;;;;;;4955194;29;20039;-53
2021/08/09 01:30:01;;;;;;;16.95;4.75;;;14.70;93.00;;;;;;4958455;28;20043;-54
2021/08/09 01:32:27;;;;;;;14.65;3.85;;;14.70;93.00;;;;;;4956587;29;20047;-53
2021/08/09 01:34:55;;;;;;;15.05;3.97;;;14.70;93.00;;;;;;4955115;29;20039;-54
2021/08/09 01:37:21;;;;;;;9.95;3.80;;;14.70;93.00;;;;;;4948076;28;20043;-54
2021/08/09 01:39:48;;;;;;;10.07;4.18;;;14.70;93.10;;;;;;4956891;28;20047;-54
2021/08/09 01:42:18;;;;;;;12.18;4.22;;;14.70;93.10;;;;;;4954156;28;20043;-54
2021/08/09 01:44:44;;;;;;;12.60;4.50;;;14.70;93.20;;;;;;4912264;29;20571;-54
2021/08/09 01:47:10;;;;;;;11.43;4.30;;;14.70;93.20;;;;;;4950109;29;20436;-54
2021/08/09 01:49:37;;;;;;;10.95;3.95;;;14.70;93.20;;;;;;4947185;28;20040;-53
2021/08/09 01:52:03;;;;;;;13.32;4.25;;;14.70;93.20;;;;;;4954069;28;20507;-53
2021/08/09 01:54:29;;;;;;;11.82;4.30;;;14.70;93.20;;;;;;4954971;28;20062;-53
2021/08/09 01:56:55;;;;;;;13.73;4.70;;;14.60;93.20;;;;;;4955458;28;20031;-54
2021/08/09 01:59:23;;;;;;;10.13;4.20;;;14.60;93.20;;;;;;4953899;29;20047;-53
2021/08/09 02:01:49;;;;;;;9.02;4.03;;;14.60;93.30;;;;;;4947849;29;20111;-53
2021/08/09 02:04:15;;;;;;;14.13;4.32;;;14.60;93.40;;;;;;4973642;23;20138;-52
2021/08/09 02:06:42;;;;;;;16.33;4.32;;;14.60;93.40;;;;;;4973853;28;20522;-52
2021/08/09 02:09:08;;;;;;;13.48;4.78;;;14.60;93.40;;;;;;4965057;28;20499;-48
2021/08/09 02:11:54;;;;;;;13.07;4.50;;;14.60;93.50;;;;;;4972863;28;20039;-50
2021/08/09 02:14:23;;;;;;;11.95;4.32;;;14.60;93.50;;;;;;4955992;28;20503;-50
2021/08/09 02:17:04;;;;;;;14.25;4.65;;;14.60;93.50;;;;;;4935342;29;20047;-51
2021/08/09 02:19:39;;;;;;;13.23;4.22;;;14.50;93.50;;;;;;4940698;29;20049;-53
2021/08/09 02:22:23;;;;;;;16.00;5.03;;;14.50;93.60;;;;;;4943652;29;20566;-55
2021/08/09 02:24:58;;;;;;;16.67;5.40;;;14.50;93.50;;;;;;4953556;28;20067;-54
2021/08/09 02:27:29;;;;;;;10.02;4.63;;;14.50;93.50;;;;;;4951534;29;20399;-54
2021/08/09 02:29:56;;;;;;;12.57;4.47;;;14.50;93.50;;;;;;4954511;29;20039;-54
2021/08/09 02:32:26;;;;;;;12.45;4.30;;;14.50;93.50;;;;;;4942991;29;20047;-51
2021/08/09 02:34:55;;;;;;;18.77;4.60;;;14.50;93.60;;;;;;4951891;29;20106;-53
2021/08/09 02:37:21;;;;;;;18.90;4.78;;;14.50;93.60;;;;;;4954076;28;20566;-51
2021/08/09 02:39:47;;;;;;;18.25;4.38;;;14.50;93.60;;;;;;4952038;29;20059;-49
2021/08/09 02:42:14;;;;;;;20.20;4.72;;;14.50;93.60;;;;;;4953690;29;20062;-50
2021/08/09 02:44:40;;;;;;;12.32;4.32;;;14.40;93.90;;;;;;4941758;28;20131;-53
2021/08/09 02:47:07;;;;;;;17.77;4.72;;;14.40;93.60;;;;;;4949323;28;20043;-50
2021/08/09 02:49:33;;;;;;;16.25;4.60;;;14.40;93.60;;;;;;4947429;28;20074;-48
2021/08/09 02:52:02;;;;;;;15.35;4.85;;;14.40;93.70;;;;;;4950936;28;20047;-50
2021/08/09 02:54:30;;;;;;;14.48;4.28;;;14.40;93.70;;;;;;4950955;28;20138;-53
2021/08/09 02:56:56;;;;;;;14.45;4.60;;;14.40;93.70;;;;;;4951457;29;20058;-52
2021/08/09 02:59:22;;;;;;;15.10;4.65;;;14.40;93.80;;;;;;4954418;29;20059;-51
2021/08/09 03:01:48;;;;;;;10.70;4.25;;;14.40;93.70;;;;;;4966031;28;20423;-51
2021/08/09 03:04:15;;;;;;;17.85;4.72;;;14.40;93.70;;;;;;4951559;29;20082;-49
2021/08/09 03:06:45;;;;;;;13.80;5.05;;;14.40;93.80;;;;;;4936454;29;20054;-49
2021/08/09 03:09:11;;;;;;;15.13;4.80;;;14.40;93.80;;;;;;4953702;29;20050;-50
2021/08/09 03:11:39;;;;;;;16.15;4.57;;;14.30;93.70;;;;;;4953663;29;20698;-50
2021/08/09 03:14:05;;;;;;;18.63;4.75;;;14.30;93.80;;;;;;4952880;28;20039;-51
2021/08/09 03:16:30;;;;;;;14.32;4.70;;;14.30;93.80;;;;;;4945379;29;20099;-49
2021/08/09 03:18:56;;;;;;;17.60;4.57;;;14.30;93.80;;;;;;4952556;29;20054;-51
2021/08/09 03:21:22;;;;;;;16.60;4.60;;;14.30;93.90;;;;;;4945596;29;20532;-51
2021/08/09 03:23:47;;;;;;;12.82;4.63;;;14.20;93.80;;;;;;4948072;29;20437;-50
2021/08/09 03:26:13;;;;;;;17.35;4.68;;;14.20;93.80;;;;;;4927502;29;20046;-51
2021/08/09 03:28:39;;;;;;;23.77;5.32;;;14.20;93.80;;;;;;4953082;29;20070;-51
2021/08/09 03:31:05;;;;;;;15.45;4.60;;;14.30;93.80;;;;;;4943416;29;20055;-50
2021/08/09 03:33:31;;;;;;;12.32;4.68;;;14.20;93.80;;;;;;4946450;29;20074;-52
2021/08/09 03:35:57;;;;;;;14.57;4.43;;;14.20;93.80;;;;;;4948594;29;20032;-51
2021/08/09 03:38:23;;;;;;;10.63;4.05;;;14.20;93.90;;;;;;4942254;29;20050;-49
2021/08/09 03:40:48;;;;;;;14.07;4.53;;;14.20;93.90;;;;;;4952871;29;20491;-52
2021/08/09 03:43:14;;;;;;;12.70;4.55;;;14.20;93.80;;;;;;4951985;28;20125;-49
2021/08/09 03:45:40;;;;;;;15.55;4.72;;;14.20;93.80;;;;;;4952538;29;20047;-50
2021/08/09 03:48:10;;;;;;;16.00;4.35;;;14.20;93.90;;;;;;4947686;28;20050;-50
2021/08/09 03:50:36;;;;;;;14.23;4.82;;;14.20;93.90;;;;;;4952920;29;20061;-49
2021/08/09 03:53:01;;;;;;;14.27;4.53;;;14.20;93.90;;;;;;4951917;28;20105;-51
2021/08/09 03:55:27;;;;;;;15.23;4.80;;;14.20;93.90;;;;;;4947381;29;20082;-51
2021/08/09 03:57:53;;;;;;;14.20;4.88;;;14.20;93.90;;;;;;4947266;29;20106;-54
2021/08/09 04:00:19;;;;;;;13.45;4.80;;;14.20;93.90;;;;;;4949993;28;20043;-51
2021/08/09 04:02:44;;;;;;;17.30;5.10;;;14.20;93.90;;;;;;4941284;28;20047;-51
2021/08/09 04:05:10;;;;;;;14.57;4.55;;;14.20;93.90;;;;;;4938120;29;20047;-49
2021/08/09 04:07:39;;;;;;;14.10;4.80;;;14.20;93.90;;;;;;4940149;29;20518;-51
2021/08/09 04:10:06;;;;;;;12.25;4.45;;;14.20;93.90;;;;;;4952983;29;20040;-49
2021/08/09 04:12:33;;;;;;;13.88;4.93;;;14.20;93.90;;;;;;4951895;29;20110;-51
2021/08/09 04:14:58;;;;;;;21.55;4.80;;;14.20;94.00;;;;;;4952558;29;20133;-48
2021/08/09 04:17:24;;;;;;;19.83;4.55;;;14.20;94.00;;;;;;4952205;29;20491;-50
2021/08/09 04:19:50;;;;;;;14.30;4.88;;;14.20;94.00;;;;;;4953310;28;20126;-51
2021/08/09 04:22:15;;;;;;;15.32;4.80;;;14.20;94.10;;;;;;4949579;29;20415;-49
2021/08/09 04:24:41;;;;;;;12.82;4.32;;;14.20;94.00;;;;;;4951821;29;20563;-51
2021/08/09 04:27:08;;;;;;;13.35;4.85;;;14.20;94.00;;;;;;4952192;29;20128;-49
2021/08/09 04:29:34;;;;;;;11.45;4.78;;;14.20;94.00;;;;;;4938970;29;20036;-53
2021/08/09 04:32:00;;;;;;;15.73;4.75;;;14.20;94.10;;;;;;4960755;28;20050;-51
2021/08/09 04:34:25;;;;;;;18.27;4.65;;;14.20;94.00;;;;;;4952359;28;20050;-48
2021/08/09 04:36:51;;;;;;;14.88;4.53;;;14.20;94.00;;;;;;4952454;29;20488;-50
2021/08/09 04:39:16;;;;;;;11.30;4.55;;;14.20;94.10;;;;;;4961168;28;20043;-51
2021/08/09 04:41:42;;;;;;;14.77;4.93;;;14.20;94.00;;;;;;4949105;28;20127;-50
2021/08/09 04:44:08;;;;;;;15.07;4.80;;;14.20;94.00;;;;;;4949867;28;20039;-52
2021/08/09 04:46:34;;;;;;;14.43;5.85;;;14.20;94.00;;;;;;4949401;28;20040;-51
2021/08/09 04:49:00;;;;;;;14.68;4.72;;;14.20;94.10;;;;;;4949458;28;20050;-52
2021/08/09 04:51:26;;;;;;;20.13;4.97;;;14.20;94.10;;;;;;4940532;28;20039;-51
2021/08/09 04:53:52;;;;;;;14.63;4.90;;;14.20;94.10;;;;;;4951976;29;20066;-51
2021/08/09 04:56:20;;;;;;;17.13;4.68;;;14.20;94.30;;;;;;4950614;28;20058;-49
2021/08/09 04:58:45;;;;;;;12.68;4.68;;;14.20;94.00;;;;;;4947817;28;20039;-51
2021/08/09 05:01:13;;;;;;;14.07;4.85;;;14.20;94.00;;;;;;4961683;28;20495;-50
2021/08/09 05:03:39;;;;;;;15.50;5.50;;;14.20;94.10;;;;;;4959342;28;20050;-53
2021/08/09 05:06:13;;;;;;;14.60;4.88;;;14.20;94.10;;;;;;4956060;28;20471;-51
2021/08/09 05:08:39;;;;;;;13.35;4.75;;;14.20;94.10;;;;;;4955408;28;20562;-49
2021/08/09 05:11:05;;;;;;;17.13;4.93;;;14.20;94.00;;;;;;4948133;28;20051;-51
2021/08/09 05:13:30;;;;;;;14.95;5.20;;;14.30;94.10;;;;;;4949393;28;20047;-51
2021/08/09 05:15:56;;;;;;;14.52;4.28;;;14.20;94.00;;;;;;4945646;28;20547;-51
2021/08/09 05:18:22;;;;;;;10.75;4.45;;;14.30;94.10;;;;;;4955222;28;20058;-51
2021/08/09 05:20:48;;;;;;;15.55;4.50;;;14.30;94.00;;;;;;4966696;28;20070;-51
2021/08/09 05:23:15;;;;;;;22.15;5.18;;;14.30;94.00;;;;;;4953806;29;20082;-53
2021/08/09 05:25:41;;;;;;;15.85;4.32;;;14.30;94.00;;;;;;4955477;29;20499;-54
2021/08/09 05:28:07;;;;;;;15.07;4.70;;;14.30;94.00;;;;;;4953395;29;20050;-53
2021/08/09 05:30:32;;;;;;;16.70;4.45;;;14.30;94.10;;;;;;4954406;29;20043;-53
2021/08/09 05:33:01;;;;;;;17.50;4.25;;;14.30;94.00;;;;;;4954307;28;20055;-50
2021/08/09 05:35:27;;;;;;;15.65;4.57;;;14.30;94.00;;;;;;4952716;29;20066;-50
2021/08/09 05:37:54;;;;;;;14.05;4.53;;;14.30;94.10;;;;;;4941209;29;20500;-51
2021/08/09 05:40:20;;;;;;;16.83;4.82;;;14.30;94.00;;;;;;4945568;29;20051;-48
2021/08/09 05:42:48;;;;;;;15.95;4.75;;;14.40;94.00;;;;;;4949009;29;20043;-51
2021/08/09 05:45:15;;;;;;;15.88;4.68;;;14.40;94.00;;;;;;4939128;29;20074;-50
2021/08/09 05:47:41;;;;;;;14.60;4.38;;;14.40;94.00;;;;;;4941340;29;20044;-51
2021/08/09 05:50:08;;;;;;;16.80;4.25;;;14.40;94.10;;;;;;4953366;29;20075;-51
2021/08/09 05:52:34;;;;;;;17.50;4.72;;;14.40;94.00;;;;;;4947498;28;20082;-48
2021/08/09 05:55:02;;;;;;;14.05;4.60;;;14.40;94.00;;;;;;4949395;29;20134;-52
2021/08/09 05:57:28;;;;;;;17.20;4.80;;;14.40;94.00;;;;;;4945872;29;20054;-50
2021/08/09 05:59:54;;;;;;;16.35;4.78;;;14.50;94.00;;;;;;4950885;29;20047;-50
2021/08/09 06:02:20;;;;;;;16.77;4.55;;;14.50;94.00;;;;;;4953518;29;20059;-50
2021/08/09 06:04:46;;;;;;;19.77;4.80;;;14.50;94.00;;;;;;4955177;29;20039;-49
2021/08/09 06:07:13;;;;;;;16.52;4.63;;;14.50;93.90;;;;;;4954527;28;20078;-53
2021/08/09 06:09:39;;;;;;;17.25;4.68;;;14.60;94.00;;;;;;4955423;28;20047;-52
2021/08/09 06:12:05;;;;;;;13.80;4.50;;;14.60;93.90;;;;;;4934913;28;20114;-52
2021/08/09 06:14:31;;;;;;;11.90;4.38;;;14.70;93.90;;;;;;4955361;29;20130;-50
2021/08/09 06:16:56;;;;;;;18.20;5.13;;;14.70;93.90;;;;;;4954261;29;20406;-53
2021/08/09 06:19:22;;;;;;;15.25;5.40;;;14.80;93.80;;;;;;4948026;28;20054;-53
2021/08/09 06:21:47;;;;;;;17.30;4.80;;;15.00;93.60;;;;;;4949759;29;20047;-53
2021/08/09 06:24:13;;;;;;;12.85;4.35;;;15.00;93.40;;;;;;4947373;29;20042;-50
2021/08/09 06:26:39;;;;;;;15.18;4.43;;;15.10;93.40;;;;;;4952747;29;20393;-54
2021/08/09 06:29:04;;;;;;;13.02;4.43;;;15.10;93.40;;;;;;4953263;29;20031;-57
2021/08/09 06:31:30;;;;;;;17.60;4.70;;;15.10;93.40;;;;;;4949344;29;20397;-52
2021/08/09 06:33:55;;;;;;;16.65;4.50;;;15.10;93.40;;;;;;4953818;28;20035;-52
2021/08/09 06:36:21;;;;;;;17.30;4.70;;;15.10;93.50;;;;;;4953235;29;20396;-51
2021/08/09 06:38:46;;;;;;;15.50;4.22;;;15.20;93.50;;;;;;4951193;29;20058;-53
2021/08/09 06:41:22;;;;;;;15.70;4.47;;;15.30;93.50;;;;;;4952812;29;20054;-55
2021/08/09 06:43:47;;;;;;;14.82;4.75;;;15.30;93.40;;;;;;4954133;28;20048;-52
2021/08/09 06:46:14;;;;;;;19.15;4.40;;;15.40;93.40;;;;;;4953066;29;20031;-55
2021/08/09 06:48:40;;;;;;;15.60;4.45;;;15.50;93.20;;;;;;4953598;29;20407;-51
2021/08/09 06:51:05;;;;;;;17.10;4.35;;;15.60;93.20;;;;;;4952629;29;20050;-52
2021/08/09 06:53:31;;;;;;;13.95;4.05;;;15.60;93.00;;;;;;4953181;28;20059;-54
2021/08/09 06:55:57;;;;;;;15.85;4.40;;;15.70;92.90;;;;;;4952702;29;20441;-49
2021/08/09 06:58:22;;;;;;;17.80;4.50;;;15.70;92.80;;;;;;4952360;28;20670;-52
2021/08/09 07:00:48;;;;;;;13.65;4.75;;;15.70;92.80;;;;;;4952835;29;20075;-50
2021/08/09 07:03:17;;;;;;;14.25;4.20;;;15.80;92.80;;;;;;4951622;28;20393;-51
2021/08/09 07:05:44;;;;;;;16.33;4.85;;;15.80;92.70;;;;;;4951324;29;20046;-50
2021/08/09 07:08:11;;;;;;;16.17;4.13;;;15.80;92.70;;;;;;4951627;28;20392;-52
2021/08/09 07:10:37;;;;;;;14.10;4.45;;;15.80;92.70;;;;;;4952286;29;20047;-53
2021/08/09 07:13:03;;;;;;;14.45;4.00;;;15.80;92.60;;;;;;4952157;28;20051;-51
2021/08/09 07:15:29;;;;;;;17.45;4.63;;;15.80;92.60;;;;;;4951321;29;20070;-52
2021/08/09 07:17:54;;;;;;;17.70;4.47;;;15.90;92.60;;;;;;4951988;29;20043;-53
2021/08/09 07:20:20;;;;;;;11.18;3.75;;;15.90;92.50;;;;;;4946065;29;20039;-50
2021/08/09 07:22:46;;;;;;;16.48;4.10;;;15.90;92.40;;;;;;4943457;29;20047;-53
2021/08/09 07:25:14;;;;;;;13.93;3.55;;;15.90;92.40;;;;;;4953396;29;20547;-52
2021/08/09 07:27:40;;;;;;;11.98;3.72;;;15.90;92.50;;;;;;4952640;29;20039;-53
2021/08/09 07:30:09;;;;;;;16.55;4.72;;;15.90;92.50;;;;;;4953212;29;20043;-52
2021/08/09 07:32:35;;;;;;;13.13;4.00;;;15.90;92.50;;;;;;4951071;29;20077;-50
2021/08/09 07:35:01;;;;;;;16.33;4.63;;;15.90;92.50;;;;;;4944840;29;20070;-50
2021/08/09 07:37:26;;;;;;;13.13;4.47;;;15.90;92.40;;;;;;4940374;29;20043;-51
2021/08/09 07:39:52;;;;;;;17.30;4.50;;;15.90;92.40;;;;;;4949914;29;20047;-53
2021/08/09 07:42:18;;;;;;;11.23;3.60;;;15.90;92.50;;;;;;4952705;29;20098;-53
2021/08/09 07:44:43;;;;;;;15.45;4.10;;;16.00;92.80;;;;;;4952671;29;20078;-52
2021/08/09 07:47:09;;;;;;;14.55;4.05;;;16.00;92.60;;;;;;4953071;29;20043;-52
2021/08/09 07:49:35;;;;;;;12.07;3.90;;;16.10;92.60;;;;;;4952090;29;20031;-52
2021/08/09 07:52:00;;;;;;;16.75;4.18;;;16.10;92.60;;;;;;4951991;29;20043;-52
2021/08/09 07:54:26;;;;;;;14.85;3.78;;;16.10;92.60;;;;;;4951329;29;20043;-53
2021/08/09 07:56:52;;;;;;;13.50;4.03;;;16.20;92.60;;;;;;4947730;29;20126;-50
2021/08/09 07:59:19;;;;;;;13.60;3.97;;;16.30;92.50;;;;;;4941840;29;20047;-51
2021/08/09 08:01:45;;;;;;;17.77;4.03;;;16.30;92.30;;;;;;4938332;28;20156;-52
2021/08/09 08:04:11;;;;;;;15.02;4.20;;;16.40;92.30;;;;;;4953204;28;20051;-53
2021/08/09 08:06:37;;;;;;;15.88;4.00;;;16.40;92.10;;;;;;4952441;29;20396;-52
2021/08/09 08:09:02;;;;;;;14.32;4.53;;;16.50;92.10;;;;;;4952515;28;20035;-55
2021/08/09 08:11:28;;;;;;;14.63;3.83;;;16.50;92.10;;;;;;4951652;28;20043;-53
2021/08/09 08:13:54;;;;;;;12.40;3.70;;;16.60;92.10;;;;;;4951264;28;20054;-52
2021/08/09 08:16:19;;;;;;;16.85;4.30;;;16.70;92.00;;;;;;4954277;28;20050;-52
2021/08/09 08:18:48;;;;;;;11.75;3.85;;;16.70;91.60;;;;;;4950814;28;20039;-52
2021/08/09 08:21:13;;;;;;;12.07;4.25;;;16.80;91.40;;;;;;4948906;28;20043;-52
2021/08/09 08:23:39;;;;;;;15.38;3.85;;;16.90;91.30;;;;;;4951537;29;20126;-55
2021/08/09 08:26:04;;;;;;;11.98;3.60;;;16.90;91.00;;;;;;4952530;29;20063;-50
2021/08/09 08:28:30;;;;;;;9.02;3.70;;;17.00;91.00;;;;;;4950793;29;20055;-53
2021/08/09 08:30:57;;;;;;;14.23;4.13;;;17.10;91.00;;;;;;4950887;29;20039;-55
2021/08/09 08:33:22;;;;;;;11.45;3.40;;;17.20;90.80;;;;;;4951671;29;20043;-53
2021/08/09 08:35:48;;;;;;;14.70;3.60;;;17.30;90.50;;;;;;4950824;29;20538;-51
2021/08/09 08:38:14;;;;;;;10.98;3.28;;;17.40;90.40;;;;;;4952307;29;20047;-52
2021/08/09 08:40:47;;;;;;;11.95;3.60;;;17.50;90.20;;;;;;4951828;29;20039;-52
2021/08/09 08:43:27;;;;;;;11.23;3.17;;;17.60;90.20;;;;;;4951446;28;20043;-56
2021/08/09 08:46:06;;;;;;;9.73;2.83;;;17.70;89.90;;;;;;4950420;29;20361;-56
2021/08/09 08:48:33;;;;;;;9.65;2.85;;;17.90;88.00;;;;;;4951878;28;20142;-56
2021/08/09 08:51:02;;;;;;;8.40;2.70;;;18.00;87.80;;;;;;4951462;28;20505;-56
2021/08/09 08:53:30;;;;;;;11.02;2.70;;;18.00;87.40;;;;;;4941801;29;20043;-56
2021/08/09 08:55:55;;;;;;;11.45;2.50;;;18.10;86.50;;;;;;4950676;28;20054;-55
2021/08/09 08:58:21;;;;;;;6.53;2.30;;;18.00;86.10;;;;;;4942170;28;20051;-56
2021/08/09 09:00:48;;;;;;;10.45;2.70;;;18.10;85.60;;;;;;4950301;28;20050;-56
2021/08/09 09:03:19;;;;;;;8.77;2.67;;;18.20;86.20;;;;;;4950655;28;20098;-56
2021/08/09 09:06:01;;;;;;;7.90;2.33;;;18.30;85.70;;;;;;4951546;29;20547;-56
2021/08/09 09:08:44;;;;;;;8.57;2.42;;;18.50;85.50;;;;;;4951166;29;20050;-56
2021/08/09 09:11:12;;;;;;;8.52;2.60;;;18.60;85.10;;;;;;4946980;29;20051;-55
2021/08/09 09:13:57;;;;;;;8.35;2.30;;;18.70;84.30;;;;;;4950474;28;20530;-56
2021/08/09 09:16:23;;;;;;;8.40;2.05;;;18.80;84.30;;;;;;4948419;29;20392;-54
2021/08/09 09:18:59;;;;;;;7.05;2.08;;;18.90;83.20;;;;;;4951245;29;20042;-54
2021/08/09 09:21:33;;;;;;;6.60;2.20;;;19.00;82.80;;;;;;4951282;28;20108;-55
2021/08/09 09:24:15;;;;;;;9.18;2.38;;;19.00;82.90;;;;;;4949801;28;20043;-55
2021/08/09 09:26:46;;;;;;;12.63;2.58;;;19.20;83.00;;;;;;4949939;28;20039;-55
2021/08/09 09:29:14;;;;;;;7.47;2.22;;;19.30;81.70;;;;;;4949378;28;20385;-55
2021/08/09 09:31:42;;;;;;;6.05;2.10;;;19.40;80.40;;;;;;4950989;29;20076;-52
2021/08/09 09:34:16;;;;;;;8.43;2.10;;;19.50;80.70;;;;;;4951510;28;20047;-52
2021/08/09 09:36:55;;;;;;;8.82;2.05;;;19.50;80.30;;;;;;4950725;29;20043;-49
2021/08/09 09:39:39;;;;;;;9.13;2.10;;;19.60;79.30;;;;;;4946801;29;20038;-52
2021/08/09 09:42:11;;;;;;;5.68;1.85;;;19.70;79.90;;;;;;4949626;29;20488;-54
2021/08/09 09:44:39;;;;;;;8.88;1.95;;;19.80;76.70;;;;;;4952466;29;20067;-52
2021/08/09 09:47:27;;;;;;;7.97;2.13;;;19.90;78.00;;;;;;4948596;28;20035;-53
2021/08/09 09:49:59;;;;;;;6.00;1.77;;;20.00;76.60;;;;;;4951538;29;20050;-54
2021/08/09 09:52:29;;;;;;;;;;;20.10;77.20;;;;;;4937704;29;20113;-52
2021/08/09 09:55:06;;;;;;;10.18;2.20;;;20.10;77.60;;;;;;4945582;29;19918;-52
2021/08/09 09:57:32;;;;;;;4.63;1.73;;;20.10;77.70;;;;;;4951523;28;20058;-53
2021/08/09 09:59:59;;;;;;;5.10;1.90;;;20.10;77.00;;;;;;4954990;29;20051;-50
2021/08/09 10:02:26;;;;;;;6.18;2.40;;;19.90;77.30;;;;;;4954315;28;20077;-52
2021/08/09 10:04:52;;;;;;;4.97;1.80;;;19.80;76.90;;;;;;4953581;28;20054;-52
2021/08/09 10:07:22;;;;;;;6.55;2.03;;;19.70;77.80;;;;;;4955619;29;20051;-52
2021/08/09 10:09:49;;;;;;;5.07;2.20;;;19.60;78.10;;;;;;4952110;29;20054;-52
2021/08/09 10:12:21;;;;;;;5.63;2.00;;;19.40;78.60;;;;;;4952653;28;20407;-51
2021/08/09 10:14:48;;;;;;;5.25;2.08;;;19.30;79.10;;;;;;4945970;28;20070;-54
2021/08/09 10:17:16;;;;;;;5.55;2.03;;;19.20;80.50;;;;;;4953609;28;20050;-51
2021/08/09 10:19:44;;;;;;;7.90;2.10;;;19.10;81.60;;;;;;4954548;28;20526;-54
2021/08/09 10:22:10;;;;;;;5.80;2.40;;;19.10;81.90;;;;;;4952284;28;20495;-52
2021/08/09 10:24:38;;;;;;;5.45;1.88;;;19.00;81.60;;;;;;4952754;29;20106;-54
2021/08/09 10:27:03;;;;;;;7.55;2.40;;;18.90;81.40;;;;;;4953232;28;20035;-52
2021/08/09 10:29:29;;;;;;;6.82;2.10;;;18.90;81.60;;;;;;4960194;28;20050;-52
2021/08/09 10:32:20;;;;;;;7.68;1.85;;;18.80;81.40;;;;;;4959111;28;20069;-53
2021/08/09 10:34:46;;;;;;;4.33;1.90;;;18.80;81.30;;;;;;4939637;29;20048;-51
2021/08/09 10:37:23;;;;;;;7.40;1.73;;;18.80;81.40;;;;;;4914884;29;20142;-52
2021/08/09 10:39:56;;;;;;;5.82;1.70;;;18.80;81.00;;;;;;4946253;28;20040;-52
2021/08/09 10:42:39;;;;;;;8.23;2.20;;;18.90;81.30;;;;;;4953009;28;20075;-52
2021/08/09 10:45:10;;;;;;;5.45;1.95;;;18.90;81.00;;;;;;4954215;28;20039;-52
2021/08/09 10:47:48;;;;;;;5.57;1.90;;;18.90;80.90;;;;;;4952620;28;20423;-52
2021/08/09 10:50:26;;;;;;;5.03;1.80;;;18.80;80.60;;;;;;4949798;28;20082;-49
2021/08/09 10:52:53;;;;;;;6.55;2.28;;;18.70;79.50;;;;;;4953084;28;20074;-49
2021/08/09 10:55:31;;;;;;;4.15;1.70;;;18.70;81.00;;;;;;4949939;28;20445;-50
2021/08/09 10:58:01;;;;;;;8.13;2.75;;;18.70;81.30;;;;;;4948147;28;20122;-52
2021/08/09 11:00:39;;;;;;;6.07;2.17;;;18.70;81.50;;;;;;4952570;29;20508;-51
2021/08/09 11:03:06;;;;;;;6.75;2.30;;;18.80;81.40;;;;;;4950136;28;20051;-52
2021/08/09 11:05:32;;;;;;;7.07;1.98;;;18.80;81.50;;;;;;4952538;28;20043;-52
2021/08/09 11:08:17;;;;;;;5.88;2.10;;;18.90;81.50;;;;;;4953378;29;20114;-51
2021/08/09 11:10:54;;;;;;;4.93;2.13;;;18.90;81.30;;;;;;4952903;28;20058;-52
2021/08/09 11:13:28;;;;;;;5.63;2.10;;;19.10;81.10;;;;;;4953214;29;20504;-49
2021/08/09 11:16:01;;;;;;;7.90;2.30;;;19.20;80.90;;;;;;4946578;29;20094;-51
2021/08/09 11:18:28;;;;;;;7.75;2.40;;;19.30;80.80;;;;;;4953606;29;20451;-53
2021/08/09 11:21:05;;;;;;;5.75;2.08;;;19.50;81.00;;;;;;4952738;29;20055;-52
2021/08/09 11:23:37;;;;;;;8.90;2.22;;;19.60;80.70;;;;;;4951849;28;20051;-52
2021/08/09 11:26:04;;;;;;;6.05;2.45;;;19.60;78.50;;;;;;4951604;29;20039;-53
2021/08/09 11:28:29;;;;;;;8.52;2.17;;;19.70;78.10;;;;;;4935945;29;20039;-54
2021/08/09 11:30:56;;;;;;;6.75;2.42;;;19.60;78.30;;;;;;4952653;29;20133;-52
2021/08/09 11:33:35;;;;;;;7.18;2.50;;;19.50;78.20;;;;;;4951468;29;20586;-52
2021/08/09 11:36:13;;;;;;;6.50;2.10;;;19.50;78.40;;;;;;4952158;29;20066;-51
2021/08/09 11:38:49;;;;;;;7.03;2.45;;;19.50;79.40;;;;;;4949460;29;20046;-52
2021/08/09 11:41:23;;;;;;;6.20;2.40;;;19.50;80.00;;;;;;4952400;29;20058;-53
2021/08/09 11:43:51;;;;;;;6.25;2.40;;;19.50;80.40;;;;;;4952377;28;20518;-51
2021/08/09 11:46:18;;;;;;;8.38;2.70;;;19.60;80.60;;;;;;4952305;29;20047;-50
2021/08/09 11:48:48;;;;;;;5.18;2.40;;;19.70;80.60;;;;;;4950940;29;20582;-50
2021/08/09 11:51:25;;;;;;;6.50;2.50;;;19.80;80.40;;;;;;4950400;29;20529;-50
2021/08/09 11:53:53;;;;;;;9.15;2.47;;;19.80;80.10;;;;;;4947822;28;20051;-50
2021/08/09 11:56:24;;;;;;;5.82;2.60;;;19.80;79.70;;;;;;4953154;29;20059;-52
2021/08/09 11:58:50;;;;;;;10.48;2.67;;;19.80;78.70;;;;;;4945816;28;20094;-54
2021/08/09 12:01:36;;;;;;;5.25;2.25;;;19.80;79.40;;;;;;4950288;29;20087;-52
2021/08/09 12:04:16;;;;;;;5.97;2.40;;;19.70;80.10;;;;;;4936008;28;20484;-54
2021/08/09 12:06:47;;;;;;;8.60;2.50;;;19.70;79.70;;;;;;4952355;29;20051;-52
2021/08/09 12:09:17;;;;;;;7.43;2.30;;;19.70;80.30;;;;;;4944598;28;20053;-52
2021/08/09 12:11:55;;;;;;;7.53;2.47;;;19.70;81.00;;;;;;4948151;28;20050;-52
2021/08/09 12:14:22;;;;;;;9.50;2.80;;;19.70;81.10;;;;;;4943224;29;20051;-52
2021/08/09 12:16:50;;;;;;;6.57;2.80;;;19.80;80.70;;;;;;4951653;28;20051;-52
2021/08/09 12:19:20;;;;;;;6.70;2.65;;;20.00;81.50;;;;;;4947251;28;20059;-53
2021/08/09 12:21:47;;;;;;;5.05;2.55;;;20.20;80.30;;;;;;4944148;28;20044;-52
2021/08/09 12:24:21;;;;;;;8.13;2.60;;;20.20;78.60;;;;;;4938771;29;20057;-49
2021/08/09 12:26:50;;;;;;;8.38;2.45;;;20.20;78.90;;;;;;4914228;29;20067;-54
2021/08/09 12:29:19;;;;;;;4.60;2.50;;;20.20;79.20;;;;;;4916159;29;20143;-54
2021/08/09 12:31:45;;;;;;;7.88;3.33;;;20.10;79.70;;;;;;4929226;29;20805;-51
2021/08/09 12:34:16;;;;;;;7.75;2.60;;;20.00;80.30;;;;;;4943629;29;20051;-49
2021/08/09 12:36:43;;;;;;;5.38;2.10;;;19.90;80.80;;;;;;4947024;29;20053;-49
2021/08/09 12:39:11;;;;;;;7.68;2.60;;;19.90;79.70;;;;;;4951352;29;20528;-49
2021/08/09 12:41:37;;;;;;;6.30;2.55;;;19.80;80.50;;;;;;4949715;29;20070;-48
2021/08/09 12:44:05;;;;;;;9.25;3.15;;;19.60;81.90;;;;;;4952237;28;20393;-53
2021/08/09 12:46:32;;;;;;;6.63;2.67;;;19.40;83.20;;;;;;4952335;29;20046;-51